Time;durP1;ratioP1;P1;durP2;ratioP2;P2;SDS_P1;SDS_P2;PMS_P1;PMS_P2;Temp;Humidity;BMP_temperature;BMP_pressure;BME280_temperature;BME280_humidity;BME280_pressure;Samples;Min_cycle;Max_cycle;Signal;HPM_P1;HPM_P2
2022/10/19 00:00:51;;;;;;;9.73;3.30;;;;;;;;;;5035642;28;20314;-77
2022/10/19 00:03:19;;;;;;;7.03;2.90;;;;;;;;;;5016288;28;20311;-78
2022/10/19 00:05:50;;;;;;;10.03;3.13;;;;;;;;;;5034015;28;20223;-77
2022/10/19 00:08:20;;;;;;;9.50;3.17;;;;;;;;;;5035865;28;20251;-77
2022/10/19 00:10:49;;;;;;;8.43;3.30;;;;;;;;;;5020346;28;20751;-77
2022/10/19 00:13:17;;;;;;;9.33;3.10;;;;;;;;;;5032096;28;20236;-77
2022/10/19 00:15:46;;;;;;;5.20;3.43;;;;;;;;;;5039383;28;20254;-77
2022/10/19 00:18:14;;;;;;;8.67;3.30;;;;;;;;;;5035282;28;20239;-77
2022/10/19 00:20:42;;;;;;;11.57;3.57;;;;;;;;;;5035349;28;20259;-77
2022/10/19 00:23:11;;;;;;;9.13;3.40;;;;;;;;;;5035444;28;20266;-77
2022/10/19 00:25:41;;;;;;;9.50;3.77;;;;;;;;;;5034343;28;20235;-77
2022/10/19 00:28:09;;;;;;;9.70;3.60;;;;;;;;;;5033822;28;20235;-77
2022/10/19 00:30:38;;;;;;;8.27;3.40;;;;;;;;;;5035515;28;20232;-77
2022/10/19 00:33:07;;;;;;;6.10;2.83;;;;;;;;;;5035292;28;20207;-77
2022/10/19 00:35:35;;;;;;;5.40;3.40;;;;;;;;;;5034515;28;20266;-77
2022/10/19 00:38:03;;;;;;;6.17;2.90;;;;;;;;;;5034835;28;20641;-77
2022/10/19 00:40:37;;;;;;;6.70;3.57;;;;;;;;;;5034805;28;20315;-77
2022/10/19 00:43:10;;;;;;;7.93;3.27;;;;;;;;;;5033718;28;20259;-77
2022/10/19 00:45:39;;;;;;;7.37;3.00;;;;;;;;;;5035156;28;20653;-77
2022/10/19 00:48:07;;;;;;;10.03;3.50;;;;;;;;;;5035108;28;20254;-77
2022/10/19 00:50:36;;;;;;;9.37;4.00;;;;;;;;;;5034238;28;21086;-77
2022/10/19 00:53:04;;;;;;;8.10;4.33;;;;;;;;;;5034579;28;20235;-77
2022/10/19 00:55:33;;;;;;;9.33;3.77;;;;;;;;;;5028886;28;20287;-77
2022/10/19 00:58:03;;;;;;;8.57;3.80;;;;;;;;;;5034820;28;20247;-77
2022/10/19 01:00:33;;;;;;;8.93;3.53;;;;;;;;;;5034695;28;20310;-77
2022/10/19 01:03:02;;;;;;;6.70;3.40;;;;;;;;;;5018697;28;20300;-77
2022/10/19 01:05:31;;;;;;;8.13;3.70;;;;;;;;;;5029832;28;20235;-77
2022/10/19 01:08:00;;;;;;;9.23;3.77;;;;;;;;;;5035115;28;20700;-77
2022/10/19 01:10:32;;;;;;;8.90;3.70;;;;;;;;;;5034581;28;20255;-78
2022/10/19 01:13:08;;;;;;;8.80;3.70;;;;;;;;;;5034448;28;20619;-77
2022/10/19 01:15:41;;;;;;;10.53;3.50;;;;;;;;;;5021336;28;20296;-77
2022/10/19 01:18:13;;;;;;;5.10;3.73;;;;;;;;;;5034187;28;20669;-77
2022/10/19 01:20:58;;;;;;;6.03;3.77;;;;;;;;;;5014538;28;20307;-77
2022/10/19 01:23:47;;;;;;;9.83;4.40;;;;;;;;;;5017323;28;20248;-77
2022/10/19 01:26:25;;;;;;;7.77;4.40;;;;;;;;;;5033167;28;20208;-77
2022/10/19 01:28:59;;;;;;;8.27;4.60;;;;;;;;;;5042936;28;20199;-77
2022/10/19 01:31:35;;;;;;;8.23;4.13;;;;;;;;;;5042666;28;20257;-77
2022/10/19 01:34:08;;;;;;;6.33;3.80;;;;;;;;;;5033279;28;20223;-77
2022/10/19 01:36:40;;;;;;;7.10;3.70;;;;;;;;;;5033879;28;20318;-77
2022/10/19 01:39:11;;;;;;;7.87;3.63;;;;;;;;;;5033872;28;20250;-77
2022/10/19 01:41:44;;;;;;;10.97;4.00;;;;;;;;;;5026994;28;20676;-77
2022/10/19 01:44:14;;;;;;;8.83;4.33;;;;;;;;;;5023830;28;20848;-77
2022/10/19 01:46:45;;;;;;;7.37;3.97;;;;;;;;;;5027704;28;20636;-77
2022/10/19 01:49:16;;;;;;;7.67;4.00;;;;;;;;;;5034304;28;20225;-77
2022/10/19 01:51:46;;;;;;;8.13;4.03;;;;;;;;;;5033785;28;20242;-77
2022/10/19 01:54:16;;;;;;;10.80;4.50;;;;;;;;;;5033750;28;20200;-77
2022/10/19 01:56:45;;;;;;;6.33;4.27;;;;;;;;;;5031492;28;20219;-77
2022/10/19 01:59:14;;;;;;;7.80;4.40;;;;;;;;;;5042813;28;20629;-77
2022/10/19 02:01:46;;;;;;;8.43;4.67;;;;;;;;;;5040149;28;20235;-77
2022/10/19 02:04:17;;;;;;;9.10;4.70;;;;;;;;;;5030966;28;20306;-77
2022/10/19 02:06:46;;;;;;;8.57;5.03;;;;;;;;;;5033146;28;20238;-77
2022/10/19 02:09:17;;;;;;;7.77;5.30;;;;;;;;;;5027758;28;20240;-78
2022/10/19 02:11:46;;;;;;;11.83;5.17;;;;;;;;;;5019700;28;20208;-78
2022/10/19 02:14:20;;;;;;;9.53;5.43;;;;;;;;;;5033069;28;20195;-78
2022/10/19 02:16:51;;;;;;;10.53;4.93;;;;;;;;;;5031014;28;20643;-77
2022/10/19 02:19:21;;;;;;;10.00;4.83;;;;;;;;;;5033046;28;20295;-77
2022/10/19 02:21:54;;;;;;;9.07;4.87;;;;;;;;;;5033216;28;20223;-77
2022/10/19 02:24:23;;;;;;;10.03;5.20;;;;;;;;;;5032832;28;20637;-77
2022/10/19 02:26:52;;;;;;;11.47;5.67;;;;;;;;;;5034684;28;20200;-78
2022/10/19 02:29:20;;;;;;;9.30;4.77;;;;;;;;;;5032945;28;20270;-78
2022/10/19 02:31:50;;;;;;;12.13;5.50;;;;;;;;;;5033415;28;20200;-79
2022/10/19 02:34:19;;;;;;;9.23;5.00;;;;;;;;;;5033216;28;20239;-77
2022/10/19 02:36:47;;;;;;;7.63;4.90;;;;;;;;;;5021067;28;20647;-77
2022/10/19 02:39:16;;;;;;;11.57;5.40;;;;;;;;;;5032611;28;20235;-77
2022/10/19 02:41:46;;;;;;;9.47;4.80;;;;;;;;;;5026347;28;20327;-78
2022/10/19 02:44:17;;;;;;;7.83;4.60;;;;;;;;;;5031078;28;20235;-78
2022/10/19 02:46:47;;;;;;;8.40;5.17;;;;;;;;;;5032433;28;20223;-78
2022/10/19 02:49:17;;;;;;;8.97;4.50;;;;;;;;;;5033163;28;20286;-78
2022/10/19 02:51:56;;;;;;;11.57;4.63;;;;;;;;;;5032852;28;20211;-78
2022/10/19 02:54:25;;;;;;;8.23;4.13;;;;;;;;;;5032751;28;20219;-77
2022/10/19 02:56:54;;;;;;;11.07;4.30;;;;;;;;;;5032971;28;20240;-77
2022/10/19 02:59:22;;;;;;;8.37;4.30;;;;;;;;;;5032477;28;20228;-78
2022/10/19 03:01:51;;;;;;;6.93;4.10;;;;;;;;;;5032579;28;20291;-77
2022/10/19 03:04:21;;;;;;;9.47;4.27;;;;;;;;;;5032403;28;20259;-77
2022/10/19 03:06:49;;;;;;;10.40;4.50;;;;;;;;;;5032351;28;20244;-77
2022/10/19 03:09:18;;;;;;;9.30;4.40;;;;;;;;;;5033098;28;20661;-77
2022/10/19 03:11:46;;;;;;;7.13;4.03;;;;;;;;;;5018565;28;20716;-77
2022/10/19 03:14:15;;;;;;;9.73;4.33;;;;;;;;;;5025403;28;20254;-78
2022/10/19 03:16:43;;;;;;;8.47;3.70;;;;;;;;;;5035608;28;20243;-78
2022/10/19 03:19:12;;;;;;;7.83;3.90;;;;;;;;;;5036613;28;20661;-77
2022/10/19 03:21:41;;;;;;;7.73;3.80;;;;;;;;;;5035989;28;20290;-78
2022/10/19 03:24:10;;;;;;;7.53;3.97;;;;;;;;;;5036192;28;20307;-77
2022/10/19 03:26:38;;;;;;;8.57;3.90;;;;;;;;;;5042086;28;20286;-77
2022/10/19 03:29:07;;;;;;;7.20;3.90;;;;;;;;;;5036746;28;20629;-77
2022/10/19 03:31:35;;;;;;;11.97;3.83;;;;;;;;;;5035679;28;20295;-78
2022/10/19 03:34:04;;;;;;;7.23;3.77;;;;;;;;;;5034844;28;20251;-77
2022/10/19 03:36:33;;;;;;;9.33;3.80;;;;;;;;;;5037314;28;20661;-77
2022/10/19 03:39:04;;;;;;;8.40;3.90;;;;;;;;;;5036248;28;20212;-77
2022/10/19 03:41:34;;;;;;;8.43;4.00;;;;;;;;;;5035834;28;20298;-77
2022/10/19 03:44:02;;;;;;;6.97;4.20;;;;;;;;;;5035844;28;20266;-78
2022/10/19 03:46:31;;;;;;;9.03;4.43;;;;;;;;;;5034162;28;20203;-78
2022/10/19 03:48:59;;;;;;;8.40;4.00;;;;;;;;;;5035816;28;20230;-77
2022/10/19 03:51:28;;;;;;;7.63;4.47;;;;;;;;;;5024957;28;20242;-78
2022/10/19 03:53:57;;;;;;;11.70;4.90;;;;;;;;;;5035845;28;20247;-78
2022/10/19 03:56:28;;;;;;;8.80;4.30;;;;;;;;;;5028752;28;20283;-78
2022/10/19 03:58:58;;;;;;;6.70;4.10;;;;;;;;;;5016413;28;20300;-78
2022/10/19 04:01:27;;;;;;;9.17;4.50;;;;;;;;;;5028536;28;20645;-78
2022/10/19 04:03:56;;;;;;;7.57;4.20;;;;;;;;;;5035532;28;20286;-78
2022/10/19 04:06:26;;;;;;;8.67;3.87;;;;;;;;;;5035475;28;20281;-78
2022/10/19 04:08:54;;;;;;;7.53;4.43;;;;;;;;;;5036107;28;20288;-77
2022/10/19 04:11:24;;;;;;;6.13;4.50;;;;;;;;;;5034663;28;20306;-78
2022/10/19 04:13:54;;;;;;;8.83;4.30;;;;;;;;;;5035537;28;20204;-78
2022/10/19 04:16:23;;;;;;;7.13;4.47;;;;;;;;;;5030634;28;20684;-78
2022/10/19 04:18:52;;;;;;;7.60;4.00;;;;;;;;;;5022362;28;20283;-77
2022/10/19 04:21:22;;;;;;;10.30;4.67;;;;;;;;;;5028284;28;20664;-77
2022/10/19 04:23:51;;;;;;;6.03;4.03;;;;;;;;;;5018068;28;20275;-77
2022/10/19 04:26:20;;;;;;;6.87;4.63;;;;;;;;;;5035785;28;20673;-78
2022/10/19 04:28:49;;;;;;;9.50;4.47;;;;;;;;;;5035426;28;20239;-78
2022/10/19 04:31:19;;;;;;;8.80;4.67;;;;;;;;;;5034386;28;20653;-78
2022/10/19 04:33:47;;;;;;;9.13;4.50;;;;;;;;;;5035398;28;20240;-78
2022/10/19 04:36:15;;;;;;;8.63;4.43;;;;;;;;;;5032653;28;20204;-78
2022/10/19 04:38:44;;;;;;;7.53;4.50;;;;;;;;;;5035120;28;20195;-78
2022/10/19 04:41:13;;;;;;;7.33;4.20;;;;;;;;;;5035174;28;20231;-78
2022/10/19 04:43:44;;;;;;;9.67;4.10;;;;;;;;;;5031344;28;20245;-78
2022/10/19 04:46:13;;;;;;;9.00;4.50;;;;;;;;;;5032193;28;20219;-78
2022/10/19 04:48:43;;;;;;;9.97;4.87;;;;;;;;;;5034382;28;20212;-78
2022/10/19 04:51:12;;;;;;;9.57;4.67;;;;;;;;;;5034787;28;20649;-78
2022/10/19 04:53:41;;;;;;;7.53;4.37;;;;;;;;;;5028016;28;20200;-78
2022/10/19 04:56:11;;;;;;;9.77;4.50;;;;;;;;;;5029707;28;20640;-78
2022/10/19 04:58:40;;;;;;;8.17;4.17;;;;;;;;;;5032711;28;20204;-78
2022/10/19 05:01:09;;;;;;;6.70;4.10;;;;;;;;;;5031731;28;20318;-78
2022/10/19 05:03:38;;;;;;;7.40;3.93;;;;;;;;;;5019318;28;20196;-77
2022/10/19 05:06:08;;;;;;;10.00;4.70;;;;;;;;;;5026774;28;20307;-78
2022/10/19 05:08:37;;;;;;;8.73;4.53;;;;;;;;;;5023743;28;20299;-78
2022/10/19 05:11:06;;;;;;;6.80;4.17;;;;;;;;;;5021575;28;20307;-78
2022/10/19 05:13:35;;;;;;;10.47;4.50;;;;;;;;;;5022367;28;20236;-78
2022/10/19 05:16:05;;;;;;;7.00;4.33;;;;;;;;;;5020932;28;20308;-78
2022/10/19 05:18:34;;;;;;;10.37;4.50;;;;;;;;;;5026550;28;20303;-77
2022/10/19 05:21:03;;;;;;;7.97;4.73;;;;;;;;;;5034148;28;20303;-75
2022/10/19 05:23:33;;;;;;;7.60;4.73;;;;;;;;;;5036406;28;20239;-75
2022/10/19 05:26:05;;;;;;;6.07;4.50;;;;;;;;;;5030593;28;20255;-78
2022/10/19 05:28:34;;;;;;;6.90;3.90;;;;;;;;;;5031948;28;20653;-78
2022/10/19 05:31:06;;;;;;;7.53;4.30;;;;;;;;;;5034444;28;20761;-78
2022/10/19 05:33:35;;;;;;;7.13;4.50;;;;;;;;;;5034155;28;20295;-78
2022/10/19 05:36:13;;;;;;;6.43;4.07;;;;;;;;;;5032777;28;20200;-78
2022/10/19 05:38:43;;;;;;;7.83;4.60;;;;;;;;;;5037472;28;20203;-78
2022/10/19 05:41:12;;;;;;;10.33;4.90;;;;;;;;;;5025034;28;20255;-78
2022/10/19 05:43:41;;;;;;;7.03;4.60;;;;;;;;;;5022599;28;20199;-78
2022/10/19 05:46:11;;;;;;;7.83;4.90;;;;;;;;;;5031908;28;20213;-78
2022/10/19 05:48:40;;;;;;;10.00;4.60;;;;;;;;;;5033793;28;20290;-78
2022/10/19 05:51:09;;;;;;;8.17;4.40;;;;;;;;;;5035549;28;20331;-78
2022/10/19 05:53:38;;;;;;;9.30;4.83;;;;;;;;;;5035782;28;20680;-78
2022/10/19 05:56:08;;;;;;;7.50;4.70;;;;;;;;;;5035408;28;20200;-78
2022/10/19 05:58:37;;;;;;;10.70;4.40;;;;;;;;;;5034635;28;20212;-78
2022/10/19 06:01:05;;;;;;;5.97;4.47;;;;;;;;;;5035646;28;20219;-78
2022/10/19 06:03:34;;;;;;;6.77;4.30;;;;;;;;;;5034765;28;20669;-78
2022/10/19 06:06:04;;;;;;;10.73;4.83;;;;;;;;;;5034758;28;20223;-78
2022/10/19 06:08:33;;;;;;;9.87;4.60;;;;;;;;;;5035540;28;20636;-78
2022/10/19 06:11:05;;;;;;;8.40;4.63;;;;;;;;;;5024562;28;20259;-78
2022/10/19 06:13:35;;;;;;;7.57;4.60;;;;;;;;;;5015930;28;20318;-78
2022/10/19 06:16:04;;;;;;;10.20;5.00;;;;;;;;;;5025850;28;20231;-78
2022/10/19 06:18:32;;;;;;;8.10;4.90;;;;;;;;;;5035365;28;20204;-78
2022/10/19 06:21:03;;;;;;;6.87;4.40;;;;;;;;;;5035671;28;20227;-78
2022/10/19 06:23:31;;;;;;;8.77;5.00;;;;;;;;;;5034996;28;20224;-78
2022/10/19 06:26:00;;;;;;;7.53;5.10;;;;;;;;;;5034702;28;20681;-78
2022/10/19 06:28:28;;;;;;;9.00;5.07;;;;;;;;;;5030102;28;20302;-78
2022/10/19 06:30:59;;;;;;;7.00;4.80;;;;;;;;;;5033901;28;20252;-78
2022/10/19 06:33:28;;;;;;;8.10;5.30;;;;;;;;;;5034192;28;20212;-78
2022/10/19 06:35:57;;;;;;;7.67;5.10;;;;;;;;;;5034468;28;20242;-78
2022/10/19 06:38:25;;;;;;;6.17;4.40;;;;;;;;;;5023349;28;20204;-78
2022/10/19 06:40:54;;;;;;;7.57;4.80;;;;;;;;;;5020364;28;20263;-78
2022/10/19 06:43:22;;;;;;;11.60;5.27;;;;;;;;;;5020431;28;20200;-77
2022/10/19 06:45:51;;;;;;;8.23;4.87;;;;;;;;;;5017144;28;20302;-78
2022/10/19 06:48:20;;;;;;;7.70;5.17;;;;;;;;;;5032389;28;20247;-78
2022/10/19 06:50:56;;;;;;;8.20;4.77;;;;;;;;;;5032903;28;20263;-78
2022/10/19 06:53:24;;;;;;;8.03;5.20;;;;;;;;;;5033178;28;20223;-78
2022/10/19 06:55:53;;;;;;;8.67;5.23;;;;;;;;;;5032564;28;20195;-77
2022/10/19 06:58:21;;;;;;;6.67;4.87;;;;;;;;;;5032828;28;20242;-77
2022/10/19 07:00:55;;;;;;;9.10;4.90;;;;;;;;;;5033119;28;20227;-78
2022/10/19 07:03:26;;;;;;;8.13;4.70;;;;;;;;;;5024796;28;20649;-78
2022/10/19 07:05:54;;;;;;;8.67;4.77;;;;;;;;;;5033023;28;20313;-78
2022/10/19 07:08:23;;;;;;;7.90;4.47;;;;;;;;;;5032722;28;20287;-78
2022/10/19 07:10:52;;;;;;;9.17;5.40;;;;;;;;;;5033516;28;20696;-78
2022/10/19 07:13:21;;;;;;;9.57;4.57;;;;;;;;;;5033154;28;20235;-77
2022/10/19 07:15:50;;;;;;;7.67;4.33;;;;;;;;;;5033081;28;20680;-78
2022/10/19 07:18:18;;;;;;;6.57;4.17;;;;;;;;;;5032285;28;20258;-78
2022/10/19 07:20:55;;;;;;;11.87;4.27;;;;;;;;;;5032845;28;20256;-78
2022/10/19 07:23:24;;;;;;;6.20;3.53;;;;;;;;;;5027688;28;20239;-78
2022/10/19 07:25:53;;;;;;;6.80;3.73;;;;;;;;;;5024498;28;20242;-78
2022/10/19 07:28:22;;;;;;;7.83;3.63;;;;;;;;;;5032553;28;20253;-77
2022/10/19 07:30:51;;;;;;;10.80;3.30;;;;;;;;;;5032650;28;20258;-77
2022/10/19 07:33:19;;;;;;;10.33;3.07;;;;;;;;;;5032867;28;20391;-78
2022/10/19 07:35:48;;;;;;;5.63;2.73;;;;;;;;;;5032917;28;20203;-78
2022/10/19 07:38:18;;;;;;;9.07;3.10;;;;;;;;;;5031196;28;20258;-78
2022/10/19 07:40:46;;;;;;;6.33;2.70;;;;;;;;;;5017576;28;20298;-78
2022/10/19 07:43:15;;;;;;;8.63;3.07;;;;;;;;;;5032801;28;20631;-78
2022/10/19 07:45:43;;;;;;;4.80;2.80;;;;;;;;;;5032153;28;20287;-78
2022/10/19 07:48:12;;;;;;;5.97;2.50;;;;;;;;;;5031270;28;20258;-78
2022/10/19 07:50:40;;;;;;;6.10;2.70;;;;;;;;;;5032461;28;20227;-78
2022/10/19 07:53:08;;;;;;;7.73;2.50;;;;;;;;;;5033162;28;20637;-78
2022/10/19 07:55:38;;;;;;;11.97;2.43;;;;;;;;;;5032714;28;20243;-78
2022/10/19 07:58:07;;;;;;;7.33;2.53;;;;;;;;;;5033220;28;20239;-79
2022/10/19 08:00:35;;;;;;;6.17;2.27;;;;;;;;;;5040650;28;20266;-76
2022/10/19 08:03:04;;;;;;;7.33;2.40;;;;;;;;;;5036471;28;20610;-80
2022/10/19 08:05:52;;;;;;;6.17;2.43;;;;;;;;;;5035893;28;20208;-79
2022/10/19 08:08:21;;;;;;;6.93;2.00;;;;;;;;;;5036416;28;20543;-80
2022/10/19 08:10:51;;;;;;;5.97;2.23;;;;;;;;;;5036175;28;20311;-80
2022/10/19 08:13:19;;;;;;;7.03;2.00;;;;;;;;;;5035517;28;20294;-80
2022/10/19 08:15:47;;;;;;;8.13;1.60;;;;;;;;;;5036109;28;20280;-80
2022/10/19 08:18:17;;;;;;;6.10;1.57;;;;;;;;;;5035618;28;20204;-79
2022/10/19 08:20:45;;;;;;;5.33;2.00;;;;;;;;;;5036202;28;20286;-79
2022/10/19 08:23:14;;;;;;;5.87;1.47;;;;;;;;;;5035799;28;20208;-80
2022/10/19 08:25:42;;;;;;;4.13;1.60;;;;;;;;;;5036530;28;20262;-80
2022/10/19 08:28:12;;;;;;;5.23;1.67;;;;;;;;;;5036245;28;20775;-80
2022/10/19 08:30:41;;;;;;;6.23;1.67;;;;;;;;;;5035614;28;20231;-80
2022/10/19 08:33:11;;;;;;;4.77;1.77;;;;;;;;;;5035918;28;20614;-80
2022/10/19 08:35:39;;;;;;;3.87;1.50;;;;;;;;;;5036076;28;20274;-80
2022/10/19 08:38:08;;;;;;;5.33;1.67;;;;;;;;;;5035925;28;20737;-80
2022/10/19 08:40:36;;;;;;;5.80;1.50;;;;;;;;;;5036830;28;20224;-81
2022/10/19 08:43:10;;;;;;;5.30;1.70;;;;;;;;;;5040993;28;20196;-81
2022/10/19 08:45:42;;;;;;;7.30;1.83;;;;;;;;;;5041661;28;20212;-80
2022/10/19 08:48:23;;;;;;;5.13;1.50;;;;;;;;;;5041039;28;20236;-81
2022/10/19 08:50:52;;;;;;;5.67;1.57;;;;;;;;;;5041745;28;20261;-80
2022/10/19 08:53:24;;;;;;;4.73;1.27;;;;;;;;;;5039644;28;20210;-81
2022/10/19 08:55:58;;;;;;;4.83;1.50;;;;;;;;;;5041286;28;20223;-80
2022/10/19 08:58:40;;;;;;;3.90;1.10;;;;;;;;;;5044849;28;20563;-81
2022/10/19 09:01:14;;;;;;;4.93;1.50;;;;;;;;;;5042289;28;20243;-81
2022/10/19 09:03:46;;;;;;;5.00;1.30;;;;;;;;;;5037977;28;20546;-80
2022/10/19 09:06:26;;;;;;;6.70;1.50;;;;;;;;;;5035217;28;20191;-78
2022/10/19 09:08:56;;;;;;;7.70;1.33;;;;;;;;;;5035489;28;20255;-79
2022/10/19 09:11:26;;;;;;;7.40;1.70;;;;;;;;;;5035236;28;20648;-79
2022/10/19 09:13:58;;;;;;;4.60;1.40;;;;;;;;;;5035221;28;20637;-79
2022/10/19 09:16:35;;;;;;;4.60;1.13;;;;;;;;;;5035312;28;20215;-79
2022/10/19 09:19:03;;;;;;;7.90;1.53;;;;;;;;;;5034950;28;20604;-78
2022/10/19 09:21:37;;;;;;;4.30;1.33;;;;;;;;;;5035447;28;20218;-78
2022/10/19 09:24:22;;;;;;;3.77;1.57;;;;;;;;;;5035002;28;20188;-79
2022/10/19 09:26:52;;;;;;;4.87;1.20;;;;;;;;;;5034261;28;20199;-80
2022/10/19 09:29:25;;;;;;;4.60;1.23;;;;;;;;;;5034836;28;20265;-78
2022/10/19 09:31:57;;;;;;;4.73;1.47;;;;;;;;;;5034917;28;20279;-78
2022/10/19 09:34:26;;;;;;;15.00;3.40;;;;;;;;;;5035071;28;20191;-78
2022/10/19 09:36:56;;;;;;;6.23;1.23;;;;;;;;;;5034635;28;20250;-79
2022/10/19 09:39:25;;;;;;;5.33;1.40;;;;;;;;;;5034839;28;20752;-78
2022/10/19 09:41:58;;;;;;;5.93;1.60;;;;;;;;;;5035001;28;20212;-78
2022/10/19 09:44:28;;;;;;;3.97;1.40;;;;;;;;;;5035727;28;20270;-78
2022/10/19 09:47:02;;;;;;;3.93;1.10;;;;;;;;;;5034864;28;20270;-78
2022/10/19 09:49:39;;;;;;;5.10;1.20;;;;;;;;;;5035314;28;20306;-78
2022/10/19 09:52:22;;;;;;;4.63;1.60;;;;;;;;;;5035241;28;20183;-77
2022/10/19 09:54:51;;;;;;;2.50;1.20;;;;;;;;;;5034656;28;20228;-79
2022/10/19 09:57:21;;;;;;;6.07;1.40;;;;;;;;;;5034856;28;20299;-79
2022/10/19 09:59:52;;;;;;;4.67;1.50;;;;;;;;;;5034383;28;20277;-79
2022/10/19 10:02:22;;;;;;;4.70;1.40;;;;;;;;;;5035393;28;20532;-78
2022/10/19 10:04:56;;;;;;;8.67;1.40;;;;;;;;;;5034596;28;20421;-78
2022/10/19 10:07:27;;;;;;;3.10;1.27;;;;;;;;;;5034608;28;20242;-78
2022/10/19 10:09:56;;;;;;;2.67;1.13;;;;;;;;;;5034818;28;20262;-78
2022/10/19 10:12:24;;;;;;;5.17;1.40;;;;;;;;;;5034514;28;20286;-78
2022/10/19 10:14:54;;;;;;;3.20;1.20;;;;;;;;;;5034217;28;20291;-78
2022/10/19 10:17:29;;;;;;;3.67;1.27;;;;;;;;;;5034205;28;20244;-78
2022/10/19 10:20:06;;;;;;;5.17;1.37;;;;;;;;;;5034114;28;20223;-79
2022/10/19 10:22:36;;;;;;;6.37;1.27;;;;;;;;;;5033126;28;20238;-78
2022/10/19 10:25:12;;;;;;;5.73;1.40;;;;;;;;;;5034065;28;20250;-79
2022/10/19 10:27:41;;;;;;;5.33;1.40;;;;;;;;;;5034251;28;20290;-77
2022/10/19 10:30:11;;;;;;;3.80;1.07;;;;;;;;;;5033670;28;20259;-78
2022/10/19 10:32:44;;;;;;;3.87;1.03;;;;;;;;;;5034290;28;20207;-78
2022/10/19 10:35:18;;;;;;;3.87;1.30;;;;;;;;;;5033829;28;20208;-79
2022/10/19 10:37:47;;;;;;;3.73;1.03;;;;;;;;;;5033614;28;20274;-79
2022/10/19 10:40:20;;;;;;;5.10;1.50;;;;;;;;;;5033370;28;20315;-78
2022/10/19 10:42:52;;;;;;;3.40;1.20;;;;;;;;;;5033635;28;20206;-78
2022/10/19 10:45:23;;;;;;;5.30;1.40;;;;;;;;;;5033899;28;20278;-78
2022/10/19 10:47:53;;;;;;;3.13;1.10;;;;;;;;;;5033648;28;20212;-78
2022/10/19 10:50:23;;;;;;;3.77;1.13;;;;;;;;;;5033688;28;20231;-77
2022/10/19 10:52:59;;;;;;;5.10;1.10;;;;;;;;;;5034071;28;20376;-80
2022/10/19 10:55:27;;;;;;;3.37;1.20;;;;;;;;;;5035792;28;20207;-80
2022/10/19 10:58:03;;;;;;;4.30;1.30;;;;;;;;;;5036028;28;20250;-80
2022/10/19 11:00:33;;;;;;;3.63;1.17;;;;;;;;;;5035635;28;20227;-80
2022/10/19 11:03:07;;;;;;;2.83;1.23;;;;;;;;;;5037005;28;20204;-80
2022/10/19 11:05:39;;;;;;;3.17;1.40;;;;;;;;;;5040257;28;20211;-80
2022/10/19 11:08:13;;;;;;;4.90;1.30;;;;;;;;;;5038027;28;20254;-80
2022/10/19 11:10:44;;;;;;;7.23;1.70;;;;;;;;;;5038214;28;20232;-80
2022/10/19 11:13:15;;;;;;;5.77;1.50;;;;;;;;;;5039289;28;20203;-80
2022/10/19 11:15:50;;;;;;;4.23;1.40;;;;;;;;;;5037208;28;20263;-80
2022/10/19 11:18:22;;;;;;;6.27;1.37;;;;;;;;;;5041109;28;20229;-80
2022/10/19 11:20:56;;;;;;;3.43;1.23;;;;;;;;;;5038804;28;20223;-80
2022/10/19 11:23:31;;;;;;;4.03;1.07;;;;;;;;;;5039512;28;20211;-80
2022/10/19 11:26:04;;;;;;;4.10;1.20;;;;;;;;;;5035479;28;20559;-80
2022/10/19 11:28:39;;;;;;;3.63;1.47;;;;;;;;;;5037687;28;20251;-80
2022/10/19 11:31:11;;;;;;;4.93;1.60;;;;;;;;;;5037832;28;20277;-80
2022/10/19 11:33:45;;;;;;;2.90;1.37;;;;;;;;;;5037513;28;20291;-80
2022/10/19 11:36:20;;;;;;;4.13;1.40;;;;;;;;;;5040462;28;20375;-80
2022/10/19 11:38:54;;;;;;;3.50;1.23;;;;;;;;;;5044329;28;20628;-80
2022/10/19 11:41:30;;;;;;;4.40;1.30;;;;;;;;;;5041658;28;20259;-80
2022/10/19 11:44:05;;;;;;;3.03;1.33;;;;;;;;;;5040940;28;20226;-80
2022/10/19 11:46:38;;;;;;;4.07;1.43;;;;;;;;;;5039547;28;20214;-80
2022/10/19 11:49:12;;;;;;;4.50;1.73;;;;;;;;;;5038482;28;20251;-80
2022/10/19 11:51:43;;;;;;;4.30;1.93;;;;;;;;;;5039094;28;20226;-80
2022/10/19 11:54:20;;;;;;;6.47;1.70;;;;;;;;;;5037750;28;20239;-77
2022/10/19 11:56:50;;;;;;;3.90;1.60;;;;;;;;;;5037708;28;20270;-79
2022/10/19 11:59:34;;;;;;;4.83;1.70;;;;;;;;;;5037175;28;20223;-78
2022/10/19 12:02:11;;;;;;;3.97;1.90;;;;;;;;;;5036776;28;20231;-78
2022/10/19 12:04:45;;;;;;;3.67;1.70;;;;;;;;;;5031169;28;20203;-78
2022/10/19 12:07:21;;;;;;;5.13;1.80;;;;;;;;;;5037039;28;20614;-78
2022/10/19 12:09:54;;;;;;;3.50;1.70;;;;;;;;;;5034763;28;20719;-77
2022/10/19 12:12:29;;;;;;;3.47;1.93;;;;;;;;;;5028091;28;20302;-77
2022/10/19 12:15:03;;;;;;;4.30;1.83;;;;;;;;;;5030942;28;20203;-78
2022/10/19 12:17:34;;;;;;;2.73;1.90;;;;;;;;;;5036130;28;20243;-78
2022/10/19 12:20:07;;;;;;;5.07;1.97;;;;;;;;;;5035641;28;20216;-78
2022/10/19 12:22:37;;;;;;;3.93;2.00;;;;;;;;;;5036105;28;20230;-78
2022/10/19 12:25:06;;;;;;;4.27;2.00;;;;;;;;;;5036235;28;20250;-78
2022/10/19 12:27:36;;;;;;;5.17;2.20;;;;;;;;;;5035579;28;20203;-78
2022/10/19 12:30:08;;;;;;;5.27;1.80;;;;;;;;;;5034728;28;20232;-78
2022/10/19 12:32:40;;;;;;;4.67;1.90;;;;;;;;;;5026165;28;20207;-78
2022/10/19 12:35:18;;;;;;;3.57;1.80;;;;;;;;;;5034967;28;20230;-77
2022/10/19 12:37:55;;;;;;;3.53;1.60;;;;;;;;;;5032978;28;20641;-77
2022/10/19 12:40:28;;;;;;;4.67;1.80;;;;;;;;;;5035876;28;20410;-78
2022/10/19 12:43:00;;;;;;;5.53;1.87;;;;;;;;;;5030469;28;20662;-78
2022/10/19 12:45:30;;;;;;;5.50;2.07;;;;;;;;;;5026397;28;20271;-78
2022/10/19 12:48:18;;;;;;;3.53;1.80;;;;;;;;;;5035013;28;20608;-78
2022/10/19 12:51:03;;;;;;;4.63;2.33;;;;;;;;;;5022618;28;20294;-77
2022/10/19 12:53:34;;;;;;;4.57;1.90;;;;;;;;;;5032685;28;20203;-78
2022/10/19 12:56:04;;;;;;;3.70;1.40;;;;;;;;;;5028240;28;20555;-78
2022/10/19 12:58:34;;;;;;;3.97;1.50;;;;;;;;;;5034545;28;20293;-78
2022/10/19 13:01:04;;;;;;;2.33;1.37;;;;;;;;;;5035341;28;20580;-77
2022/10/19 13:03:36;;;;;;;2.97;1.20;;;;;;;;;;4784303;28;10001002;-78
2022/10/19 13:06:10;;;;;;;3.53;1.63;;;;;;;;;;5033660;28;20408;-78
2022/10/19 13:08:42;;;;;;;4.67;1.40;;;;;;;;;;5032889;28;20617;-78
2022/10/19 13:11:13;;;;;;;5.70;1.70;;;;;;;;;;5034531;28;20500;-77
2022/10/19 13:13:54;;;;;;;2.50;1.47;;;;;;;;;;5026160;28;20289;-78
2022/10/19 13:16:33;;;;;;;5.03;1.33;;;;;;;;;;5020207;28;20222;-78
2022/10/19 13:19:03;;;;;;;4.47;1.60;;;;;;;;;;5027385;28;20208;-78
2022/10/19 13:21:46;;;;;;;5.37;1.60;;;;;;;;;;5033328;28;20963;-78
2022/10/19 13:24:26;;;;;;;3.80;1.77;;;;;;;;;;5032763;28;20673;-78
2022/10/19 13:27:13;;;;;;;4.50;1.57;;;;;;;;;;5020118;28;20315;-78
2022/10/19 13:29:43;;;;;;;2.50;1.37;;;;;;;;;;5027103;28;20734;-77
2022/10/19 13:32:45;;;;;;;3.27;1.50;;;;;;;;;;5026486;28;20250;-78
2022/10/19 13:35:24;;;;;;;4.87;1.60;;;;;;;;;;4970692;28;20690;-78
2022/10/19 13:38:25;;;;;;;3.80;1.30;;;;;;;;;;4971673;28;20250;-78
2022/10/19 13:41:11;;;;;;;4.90;1.40;;;;;;;;;;4966665;28;20220;-78
2022/10/19 13:43:51;;;;;;;3.27;1.30;;;;;;;;;;5025528;28;20211;-78
2022/10/19 13:46:22;;;;;;;4.37;1.40;;;;;;;;;;5027633;28;20664;-78
2022/10/19 13:48:59;;;;;;;4.73;1.37;;;;;;;;;;5035907;28;20204;-78
2022/10/19 13:51:32;;;;;;;3.07;1.20;;;;;;;;;;5032504;28;20291;-78
2022/10/19 13:54:06;;;;;;;2.60;1.33;;;;;;;;;;5031921;28;20200;-78
2022/10/19 13:56:38;;;;;;;4.27;1.53;;;;;;;;;;5032965;28;20270;-77
2022/10/19 13:59:14;;;;;;;3.47;1.70;;;;;;;;;;5025958;28;20676;-77
2022/10/19 14:01:49;;;;;;;3.10;1.23;;;;;;;;;;5031883;28;20196;-77
2022/10/19 14:04:22;;;;;;;4.50;1.50;;;;;;;;;;5033820;28;20183;-77
2022/10/19 14:06:53;;;;;;;3.87;1.70;;;;;;;;;;5031979;28;20641;-77
2022/10/19 14:09:29;;;;;;;2.57;1.27;;;;;;;;;;5014409;28;20230;-78
2022/10/19 14:12:05;;;;;;;2.90;1.30;;;;;;;;;;5016581;28;20262;-78
2022/10/19 14:14:41;;;;;;;2.90;1.30;;;;;;;;;;5024657;28;20200;-77
2022/10/19 14:17:17;;;;;;;3.53;1.20;;;;;;;;;;5020741;28;20242;-78
2022/10/19 14:19:46;;;;;;;4.10;1.50;;;;;;;;;;5031637;28;20267;-78
2022/10/19 14:22:19;;;;;;;5.97;1.40;;;;;;;;;;5032512;28;20257;-77
2022/10/19 14:24:48;;;;;;;3.63;1.63;;;;;;;;;;5032615;28;20286;-78
2022/10/19 14:27:19;;;;;;;3.30;1.50;;;;;;;;;;5033383;28;20290;-77
2022/10/19 14:29:50;;;;;;;5.07;1.50;;;;;;;;;;5032776;28;20228;-77
2022/10/19 14:32:21;;;;;;;4.50;1.60;;;;;;;;;;5031657;28;20294;-77
2022/10/19 14:34:50;;;;;;;3.20;1.60;;;;;;;;;;5033807;28;20291;-78
2022/10/19 14:37:20;;;;;;;2.97;1.50;;;;;;;;;;5033871;28;20215;-77
2022/10/19 14:39:58;;;;;;;4.27;1.80;;;;;;;;;;5022219;28;20318;-78
2022/10/19 14:42:36;;;;;;;4.03;1.70;;;;;;;;;;5032463;28;20294;-78
2022/10/19 14:45:26;;;;;;;2.87;1.63;;;;;;;;;;5019046;28;20247;-77
2022/10/19 14:48:00;;;;;;;3.20;1.80;;;;;;;;;;5031597;28;20623;-78
2022/10/19 14:50:35;;;;;;;5.27;2.00;;;;;;;;;;5032993;28;20281;-78
2022/10/19 14:53:08;;;;;;;2.80;1.50;;;;;;;;;;5024462;28;20205;-77
2022/10/19 14:55:40;;;;;;;4.00;1.73;;;;;;;;;;5036611;28;20195;-77
2022/10/19 14:58:12;;;;;;;4.77;1.90;;;;;;;;;;5032379;28;20200;-78
2022/10/19 15:00:41;;;;;;;3.23;1.67;;;;;;;;;;5024140;28;20263;-77
2022/10/19 15:03:12;;;;;;;3.80;1.77;;;;;;;;;;5030370;28;20204;-77
2022/10/19 15:05:47;;;;;;;3.40;1.90;;;;;;;;;;5024645;28;20246;-77